Time;durP1;ratioP1;P1;durP2;ratioP2;P2;SDS_P1;SDS_P2;PMS_P1;PMS_P2;Temp;Humidity;BMP_temperature;BMP_pressure;BME280_temperature;BME280_humidity;BME280_pressure;Samples;Min_cycle;Max_cycle;Signal;HPM_P1;HPM_P2
2022/03/09 00:00:49;;;;;;;39.00;23.43;;;;;;;2.54;100.00;99535.16;5070204;28;20193;-78
2022/03/09 00:03:18;;;;;;;44.63;24.00;;;;;;;2.43;100.00;99530.84;5069614;28;20199;-77
2022/03/09 00:05:44;;;;;;;45.00;24.43;;;;;;;2.44;100.00;99527.44;5070011;28;20582;-80
2022/03/09 00:08:12;;;;;;;38.83;22.07;;;;;;;2.60;100.00;99534.31;5070485;28;20596;-78
2022/03/09 00:10:38;;;;;;;39.97;23.47;;;;;;;2.58;100.00;99530.06;5069831;28;20211;-79
2022/03/09 00:13:05;;;;;;;37.57;22.83;;;;;;;2.55;100.00;99525.78;5069964;28;20199;-79
2022/03/09 00:15:32;;;;;;;38.67;22.70;;;;;;;2.54;100.00;99529.19;5070268;28;20696;-79
2022/03/09 00:17:59;;;;;;;38.13;22.10;;;;;;;2.30;100.00;99491.53;5070005;28;20227;-78
2022/03/09 00:20:27;;;;;;;38.60;21.87;;;;;;;2.40;100.00;99526.56;5069714;28;20744;-78
2022/03/09 00:22:54;;;;;;;40.57;23.30;;;;;;;2.41;100.00;99528.28;5069894;28;20195;-79
2022/03/09 00:25:21;;;;;;;40.30;23.23;;;;;;;2.39;100.00;99519.72;5069962;28;20220;-78
2022/03/09 00:27:48;;;;;;;37.97;22.43;;;;;;;2.38;100.00;99522.28;5070017;28;20252;-79
2022/03/09 00:30:15;;;;;;;38.27;22.93;;;;;;;2.25;100.00;99520.53;5069860;28;20199;-78
2022/03/09 00:32:42;;;;;;;40.03;22.90;;;;;;;2.34;100.00;99520.59;5069922;28;20201;-78
2022/03/09 00:35:09;;;;;;;39.00;23.73;;;;;;;2.26;100.00;99512.00;5069647;28;20205;-78
2022/03/09 00:37:38;;;;;;;42.80;23.37;;;;;;;2.28;100.00;99508.59;5070074;28;20604;-78
2022/03/09 00:40:06;;;;;;;42.30;24.67;;;;;;;2.16;100.00;99491.47;5068132;28;20195;-78
2022/03/09 00:42:35;;;;;;;45.17;25.73;;;;;;;2.26;100.00;99517.13;5069995;28;20241;-78
2022/03/09 00:45:03;;;;;;;41.67;23.37;;;;;;;2.05;100.00;99462.41;5069995;28;20198;-78
2022/03/09 00:47:29;;;;;;;43.03;24.13;;;;;;;2.32;100.00;99499.22;5069882;28;20198;-78
2022/03/09 00:49:56;;;;;;;38.53;23.60;;;;;;;2.32;100.00;99504.34;5059765;28;20201;-79
2022/03/09 00:52:23;;;;;;;40.13;24.13;;;;;;;2.32;100.00;99502.63;5050127;28;20209;-79
2022/03/09 00:54:52;;;;;;;37.00;23.33;;;;;;;2.24;100.00;99496.63;5049875;28;20211;-78
2022/03/09 00:57:19;;;;;;;39.47;23.70;;;;;;;2.11;100.00;99498.28;5049649;28;20194;-78
2022/03/09 00:59:45;;;;;;;40.37;24.43;;;;;;;2.18;100.00;99504.28;5049686;28;20225;-78
2022/03/09 01:02:12;;;;;;;39.30;22.57;;;;;;;2.12;100.00;99484.63;5049387;28;20202;-78
2022/03/09 01:04:39;;;;;;;43.03;24.03;;;;;;;2.15;100.00;99483.78;5049523;28;20234;-77
2022/03/09 01:07:06;;;;;;;41.17;23.90;;;;;;;2.15;100.00;99484.63;5049910;28;20613;-78
2022/03/09 01:09:33;;;;;;;38.37;24.10;;;;;;;2.10;100.00;99486.34;5050346;28;20576;-78
2022/03/09 01:12:02;;;;;;;40.33;22.77;;;;;;;2.10;100.00;99481.22;5049822;28;20198;-77
2022/03/09 01:14:28;;;;;;;38.63;23.10;;;;;;;2.06;100.00;99473.50;5062166;28;20213;-78
2022/03/09 01:16:56;;;;;;;40.53;24.37;;;;;;;2.04;100.00;99483.72;5073143;28;20194;-78
2022/03/09 01:19:22;;;;;;;40.70;22.67;;;;;;;2.01;100.00;99475.19;5073188;28;20230;-79
2022/03/09 01:21:49;;;;;;;40.33;23.60;;;;;;;1.91;100.00;99471.75;5073413;28;20615;-79
2022/03/09 01:24:16;;;;;;;40.80;24.27;;;;;;;1.95;100.00;99472.59;5072958;28;20199;-78
2022/03/09 01:26:43;;;;;;;48.83;25.43;;;;;;;2.02;100.00;99472.66;5073166;28;20591;-79
2022/03/09 01:29:11;;;;;;;38.70;23.80;;;;;;;2.01;100.00;99470.94;5072937;28;20672;-78
2022/03/09 01:31:39;;;;;;;39.70;23.03;;;;;;;1.97;100.00;99460.66;5073059;28;20582;-72
2022/03/09 01:34:05;;;;;;;42.20;23.80;;;;;;;1.88;100.00;99437.59;5072462;28;20195;-72
2022/03/09 01:36:32;;;;;;;39.90;24.20;;;;;;;2.07;100.00;99470.94;5072445;28;20202;-72
2022/03/09 01:38:59;;;;;;;42.27;24.20;;;;;;;2.08;100.00;99472.66;5072419;28;20225;-78
2022/03/09 01:41:26;;;;;;;43.50;23.80;;;;;;;2.05;100.00;99475.19;5072693;28;20240;-78
2022/03/09 01:44:09;;;;;;;38.77;23.80;;;;;;;1.98;100.00;99481.16;5072815;28;20196;-77
2022/03/09 01:46:38;;;;;;;42.60;24.60;;;;;;;1.78;100.00;99429.88;5072978;28;20205;-78
2022/03/09 01:49:06;;;;;;;41.90;24.63;;;;;;;2.06;100.00;99470.94;5072770;28;20197;-78
2022/03/09 01:51:33;;;;;;;42.53;24.33;;;;;;;2.04;100.00;99473.47;5072991;28;20580;-78
2022/03/09 01:54:00;;;;;;;41.93;24.33;;;;;;;2.04;100.00;99470.94;5054106;28;20206;-78
2022/03/09 01:56:28;;;;;;;41.43;24.33;;;;;;;2.03;100.00;99474.34;5052797;28;20240;-77
2022/03/09 01:58:55;;;;;;;46.33;25.90;;;;;;;2.05;100.00;99472.63;5052769;28;20223;-77
2022/03/09 02:01:22;;;;;;;42.03;24.90;;;;;;;2.00;100.00;99474.34;5069800;28;20208;-78
2022/03/09 02:03:51;;;;;;;40.07;23.80;;;;;;;2.06;100.00;99469.22;5072906;28;20632;-73
2022/03/09 02:06:18;;;;;;;45.17;25.47;;;;;;;2.06;100.00;99478.63;5072125;28;20202;-72
2022/03/09 02:11:32;;;;;;;40.87;23.83;;;;;;;2.05;100.00;99472.63;5071995;28;20197;-72
2022/03/09 02:13:59;;;;;;;46.33;25.90;;;;;;;2.01;100.00;99476.06;5071669;28;20208;-73
2022/03/09 02:16:26;;;;;;;44.63;25.37;;;;;;;2.11;100.00;99477.81;5071980;28;20205;-78
2022/03/09 02:18:54;;;;;;;45.97;25.80;;;;;;;2.10;100.00;99482.91;5072233;28;20224;-78
2022/03/09 02:21:23;;;;;;;47.30;27.33;;;;;;;2.02;100.00;99471.78;5071972;28;20226;-78
2022/03/09 02:23:51;;;;;;;47.77;26.40;;;;;;;2.16;100.00;99494.03;5072087;28;20192;-78
2022/03/09 02:26:18;;;;;;;47.37;27.83;;;;;;;2.22;100.00;99492.34;5071855;28;20202;-78
2022/03/09 02:28:48;;;;;;;47.60;25.90;;;;;;;2.18;100.00;99497.47;5072083;28;20192;-78
2022/03/09 02:31:15;;;;;;;46.20;26.70;;;;;;;1.99;100.00;99472.63;5072106;28;20239;-77
2022/03/09 02:33:45;;;;;;;44.70;26.70;;;;;;;2.05;100.00;99490.56;5071940;28;20202;-77
2022/03/09 02:36:12;;;;;;;44.97;25.33;;;;;;;1.88;100.00;99478.53;5071689;28;20678;-77
2022/03/09 02:38:39;;;;;;;44.07;25.57;;;;;;;1.91;100.00;99494.78;5071658;28;20612;-76
2022/03/09 02:41:07;;;;;;;45.77;26.30;;;;;;;1.88;100.00;99484.50;5071212;28;20244;-77
2022/03/09 02:43:34;;;;;;;48.13;27.17;;;;;;;2.05;100.00;99485.44;5071655;28;20197;-77
2022/03/09 02:46:01;;;;;;;47.67;26.43;;;;;;;1.99;100.00;99487.97;5071197;28;20196;-77
2022/03/09 02:48:27;;;;;;;47.50;26.67;;;;;;;1.84;100.00;99469.97;5070809;28;20290;-72
2022/03/09 02:50:54;;;;;;;52.07;28.03;;;;;;;1.96;100.00;99482.84;5070929;28;20200;-72
2022/03/09 02:53:22;;;;;;;48.07;27.70;;;;;;;1.96;100.00;99475.16;5071109;28;20707;-73
2022/03/09 02:55:48;;;;;;;46.07;27.03;;;;;;;1.83;100.00;99435.00;5071115;28;20196;-72
2022/03/09 02:58:17;;;;;;;49.57;27.63;;;;;;;1.94;100.00;99464.06;5070903;28;20209;-72
2022/03/09 03:00:43;;;;;;;41.97;24.90;;;;;;;2.11;100.00;99487.19;5071147;28;20226;-73
2022/03/09 03:03:10;;;;;;;48.13;26.17;;;;;;;2.08;100.00;99485.47;5070685;28;20207;-73
2022/03/09 03:05:37;;;;;;;46.73;26.20;;;;;;;2.08;100.00;99488.03;5070697;28;20200;-72
2022/03/09 03:08:05;;;;;;;48.97;26.80;;;;;;;2.04;100.00;99488.00;5070756;28;20203;-73
2022/03/09 03:10:31;;;;;;;44.60;26.00;;;;;;;2.09;100.00;99494.00;5070730;28;20196;-72
2022/03/09 03:12:58;;;;;;;47.87;27.07;;;;;;;2.24;100.00;99495.78;5070530;28;20201;-72
2022/03/09 03:15:27;;;;;;;50.30;26.87;;;;;;;1.95;100.00;99449.56;5070517;28;20200;-73
2022/03/09 03:17:53;;;;;;;49.10;26.40;;;;;;;2.04;100.00;99491.41;5070450;28;20201;-72
2022/03/09 03:20:20;;;;;;;48.43;27.30;;;;;;;2.19;100.00;99495.75;5070446;28;20221;-72
2022/03/09 03:22:47;;;;;;;47.33;27.30;;;;;;;2.19;100.00;99490.63;5070708;28;20294;-72
2022/03/09 03:25:14;;;;;;;48.23;27.13;;;;;;;2.03;100.00;99469.22;5070362;28;20197;-73
2022/03/09 03:27:41;;;;;;;49.47;27.57;;;;;;;2.12;100.00;99486.34;5070439;28;20197;-73
2022/03/09 03:30:09;;;;;;;49.33;27.30;;;;;;;1.82;100.00;99436.69;5070285;28;20293;-77
2022/03/09 03:32:37;;;;;;;50.70;28.83;;;;;;;2.04;100.00;99447.88;5071254;28;20222;-78
2022/03/09 03:35:05;;;;;;;49.30;27.83;;;;;;;2.15;100.00;99487.19;5071140;28;20193;-77
2022/03/09 03:37:32;;;;;;;50.40;27.90;;;;;;;2.12;100.00;99484.63;5070422;28;20220;-78
2022/03/09 03:39:59;;;;;;;55.27;29.17;;;;;;;2.16;100.00;99491.47;5070715;28;20221;-78
2022/03/09 03:42:25;;;;;;;53.43;30.03;;;;;;;2.00;100.00;99448.75;5070492;28;20240;-78
2022/03/09 03:44:52;;;;;;;47.67;27.90;;;;;;;2.15;100.00;99486.34;5070839;28;20198;-78
2022/03/09 03:47:19;;;;;;;50.27;28.63;;;;;;;2.22;100.00;99492.34;5070931;28;20600;-79
2022/03/09 03:49:47;;;;;;;51.63;28.47;;;;;;;2.12;100.00;99483.78;5071080;28;20215;-78
2022/03/09 03:52:14;;;;;;;49.33;28.23;;;;;;;2.11;100.00;99484.63;5070642;28;20674;-78
2022/03/09 03:54:41;;;;;;;52.97;29.30;;;;;;;2.09;100.00;99479.50;5071150;28;20203;-78
2022/03/09 03:57:08;;;;;;;54.70;28.27;;;;;;;2.18;100.00;99488.91;5070212;28;20201;-78
2022/03/09 03:59:35;;;;;;;51.50;28.37;;;;;;;2.11;100.00;99487.19;5070515;28;20659;-71
2022/03/09 04:02:02;;;;;;;51.60;28.43;;;;;;;2.04;100.00;99483.72;5069512;28;20192;-72
2022/03/09 04:04:29;;;;;;;52.00;29.70;;;;;;;2.04;100.00;99481.16;5068978;28;20193;-72
2022/03/09 04:06:57;;;;;;;51.53;29.30;;;;;;;2.11;100.00;99459.88;5068699;28;20197;-72
2022/03/09 04:09:24;;;;;;;50.40;28.40;;;;;;;2.25;100.00;99477.00;5069365;28;20568;-72
2022/03/09 04:11:51;;;;;;;51.60;28.40;;;;;;;2.24;100.00;99482.97;5069193;28;20198;-72
2022/03/09 04:14:22;;;;;;;55.23;30.13;;;;;;;2.31;100.00;99489.81;5069549;28;20196;-71
2022/03/09 04:16:49;;;;;;;47.30;28.03;;;;;;;2.31;100.00;99487.25;5069310;28;20213;-73
2022/03/09 04:19:16;;;;;;;53.43;30.07;;;;;;;2.32;100.00;99491.53;5068802;28;20215;-71
2022/03/09 04:21:43;;;;;;;55.50;29.80;;;;;;;2.31;100.00;99488.13;5069042;28;20201;-72
2022/03/09 04:24:11;;;;;;;54.60;30.53;;;;;;;2.42;100.00;99494.13;5067717;28;20663;-72
2022/03/09 04:26:38;;;;;;;51.03;29.97;;;;;;;2.47;100.00;99482.22;5068592;28;20593;-71
2022/03/09 04:29:05;;;;;;;50.20;29.50;;;;;;;2.57;100.00;99493.34;5063650;28;20204;-71
2022/03/09 04:31:32;;;;;;;49.47;28.13;;;;;;;2.57;100.00;99487.34;5065648;28;20208;-73
2022/03/09 04:33:59;;;;;;;50.97;28.57;;;;;;;2.41;100.00;99496.69;5061835;28;20596;-72
2022/03/09 04:36:26;;;;;;;51.60;28.60;;;;;;;2.31;100.00;99492.38;5063802;28;20200;-78
2022/03/09 04:38:53;;;;;;;50.83;29.07;;;;;;;2.40;100.00;99494.97;5068368;28;20208;-78
2022/03/09 04:41:21;;;;;;;51.53;28.33;;;;;;;2.38;100.00;99497.53;5068822;28;20299;-82
2022/03/09 04:43:49;;;;;;;49.90;28.13;;;;;;;2.46;100.00;99500.13;5067286;28;20667;-79
2022/03/09 04:46:16;;;;;;;48.03;28.37;;;;;;;2.45;100.00;99494.16;5068735;28;20550;-78
2022/03/09 04:48:44;;;;;;;49.63;28.60;;;;;;;2.47;100.00;99499.28;5070299;28;20198;-76
2022/03/09 04:51:11;;;;;;;52.93;29.27;;;;;;;2.42;100.00;99501.81;5071527;28;20253;-78
2022/03/09 04:53:38;;;;;;;49.27;29.00;;;;;;;2.42;100.00;99495.84;5067239;28;20214;-77
2022/03/09 04:56:05;;;;;;;53.43;29.70;;;;;;;2.45;100.00;99506.09;5070806;28;20220;-79
2022/03/09 04:58:33;;;;;;;49.87;28.63;;;;;;;2.37;100.00;99500.13;5070857;28;20215;-78
2022/03/09 05:01:00;;;;;;;52.57;29.70;;;;;;;2.42;100.00;99501.81;5070733;28;20234;-79
2022/03/09 05:03:28;;;;;;;54.00;30.57;;;;;;;2.42;100.00;99506.09;5070483;28;20235;-79
2022/03/09 05:05:54;;;;;;;53.23;29.60;;;;;;;2.23;100.00;99487.25;5071429;28;20233;-79
2022/03/09 05:08:21;;;;;;;54.50;30.70;;;;;;;2.27;100.00;99512.00;5070369;28;20233;-81
2022/03/09 05:10:48;;;;;;;56.00;29.33;;;;;;;2.36;100.00;99508.66;5071583;28;20309;-78
2022/03/09 05:13:15;;;;;;;59.00;31.60;;;;;;;2.48;100.00;99518.94;5072074;28;20195;-78
2022/03/09 05:15:43;;;;;;;52.57;29.30;;;;;;;2.49;100.00;99515.50;5071803;28;20223;-79
2022/03/09 05:18:10;;;;;;;53.93;30.53;;;;;;;2.44;100.00;99515.50;5072454;28;20200;-77
2022/03/09 05:20:37;;;;;;;58.87;31.33;;;;;;;2.52;100.00;99515.50;5071277;28;20616;-81
2022/03/09 05:23:05;;;;;;;54.13;30.80;;;;;;;2.42;100.00;99500.97;5069462;28;20219;-79
2022/03/09 05:25:32;;;;;;;56.53;30.37;;;;;;;2.55;100.00;99536.03;5067151;28;20533;-79
2022/03/09 05:28:00;;;;;;;57.60;32.13;;;;;;;2.54;100.00;99534.31;5071667;28;20215;-79
2022/03/09 05:30:27;;;;;;;54.13;31.73;;;;;;;2.51;100.00;99534.28;5071993;28;20615;-79
2022/03/09 05:32:56;;;;;;;52.63;29.50;;;;;;;2.57;100.00;99544.59;5070497;28;20225;-78
2022/03/09 05:35:23;;;;;;;49.20;29.00;;;;;;;2.51;100.00;99539.41;5071885;28;20247;-79
2022/03/09 05:37:50;;;;;;;53.70;30.30;;;;;;;2.58;100.00;99538.63;5072017;28;20720;-79
2022/03/09 05:40:17;;;;;;;49.97;28.90;;;;;;;2.40;100.00;99525.72;5071188;28;20583;-79
2022/03/09 05:42:44;;;;;;;54.10;29.07;;;;;;;2.52;100.00;99548.81;5071245;28;20231;-79
2022/03/09 05:45:12;;;;;;;48.93;29.60;;;;;;;2.55;100.00;99556.53;5070696;28;20218;-78
2022/03/09 05:47:39;;;;;;;56.07;29.87;;;;;;;2.54;100.00;99562.50;5070707;28;20280;-78
2022/03/09 05:50:08;;;;;;;52.37;29.57;;;;;;;2.53;100.00;99560.78;5071662;28;20224;-79
2022/03/09 05:52:35;;;;;;;53.30;30.03;;;;;;;2.23;100.00;99564.06;5072524;28;20270;-79
2022/03/09 05:55:02;;;;;;;52.00;30.37;;;;;;;2.19;100.00;99564.88;5072363;28;20226;-80
2022/03/09 05:57:29;;;;;;;55.03;30.70;;;;;;;2.25;100.00;99570.06;5072018;28;20238;-80
2022/03/09 05:59:56;;;;;;;52.50;29.00;;;;;;;2.24;100.00;99573.47;5071367;28;20236;-79
2022/03/09 06:02:23;;;;;;;54.53;30.60;;;;;;;2.21;100.00;99570.03;5052480;28;20264;-77
2022/03/09 06:04:50;;;;;;;52.97;30.43;;;;;;;2.27;100.00;99575.16;5067215;28;20220;-78
2022/03/09 06:07:18;;;;;;;55.53;32.07;;;;;;;2.22;100.00;99582.84;5071894;28;20246;-79
2022/03/09 06:09:45;;;;;;;57.80;32.40;;;;;;;2.22;100.00;99587.09;5072190;28;20197;-81
2022/03/09 06:12:12;;;;;;;57.53;32.50;;;;;;;2.19;100.00;99588.78;5072496;28;20225;-82
2022/03/09 06:14:39;;;;;;;57.03;31.83;;;;;;;2.22;100.00;99590.53;5072468;28;20197;-82
2022/03/09 06:17:06;;;;;;;60.77;32.20;;;;;;;2.21;100.00;99586.25;5072496;28;20228;-82
2022/03/09 06:19:33;;;;;;;56.20;31.40;;;;;;;2.08;100.00;99595.53;5072913;28;20197;-83
2022/03/09 06:22:00;;;;;;;55.57;30.83;;;;;;;1.99;100.00;99590.38;5066138;28;20204;-82
2022/03/09 06:24:28;;;;;;;58.10;31.83;;;;;;;1.97;100.00;99586.94;5052215;28;20212;-82
2022/03/09 06:26:55;;;;;;;59.27;31.90;;;;;;;1.97;100.00;99579.25;5054420;28;20196;-82
2022/03/09 06:29:22;;;;;;;56.80;31.77;;;;;;;1.91;100.00;99591.16;5052577;28;20644;-81
2022/03/09 06:31:49;;;;;;;56.50;31.30;;;;;;;1.83;100.00;99573.19;5052373;28;20207;-83
2022/03/09 06:34:17;;;;;;;62.57;33.10;;;;;;;1.93;100.00;99598.00;5051882;28;20284;-72
2022/03/09 06:36:44;;;;;;;56.77;31.90;;;;;;;1.90;100.00;99592.00;5051328;28;20226;-74
2022/03/09 06:39:12;;;;;;;57.03;31.63;;;;;;;1.87;100.00;99595.41;5051163;28;20202;-74
2022/03/09 06:41:41;;;;;;;56.57;29.30;;;;;;;1.79;100.00;99586.81;5051069;28;20247;-74
2022/03/09 06:44:08;;;;;;;59.07;31.67;;;;;;;1.87;100.00;99595.41;5061383;28;20200;-73
2022/03/09 06:46:35;;;;;;;63.00;32.10;;;;;;;2.11;100.00;99600.69;5071197;28;20201;-71
2022/03/09 06:49:02;;;;;;;57.90;32.30;;;;;;;2.27;100.00;99600.75;5070576;28;20697;-72
2022/03/09 06:51:29;;;;;;;62.70;31.70;;;;;;;2.23;100.00;99593.94;5070972;28;20568;-72
2022/03/09 06:53:56;;;;;;;60.70;33.20;;;;;;;2.18;100.00;99607.56;5071097;28;20195;-73
2022/03/09 06:56:23;;;;;;;58.73;32.33;;;;;;;2.14;100.00;99603.25;5070177;28;20694;-73
2022/03/09 06:58:51;;;;;;;62.83;33.40;;;;;;;2.22;100.00;99605.88;5070474;28;20197;-73
2022/03/09 07:01:18;;;;;;;64.63;33.60;;;;;;;2.18;100.00;99610.13;5070631;28;20217;-72
2022/03/09 07:03:45;;;;;;;63.43;33.27;;;;;;;2.12;100.00;99601.56;5071206;28;20192;-72
2022/03/09 07:06:12;;;;;;;61.30;32.43;;;;;;;1.94;100.00;99579.22;5070219;28;20196;-73
2022/03/09 07:08:39;;;;;;;61.70;32.60;;;;;;;2.21;100.00;99601.59;5060269;28;20307;-73
2022/03/09 07:11:06;;;;;;;63.50;33.30;;;;;;;2.25;100.00;99605.91;5049393;28;20223;-72
2022/03/09 07:13:33;;;;;;;63.70;33.47;;;;;;;2.21;100.00;99609.28;5049664;28;20217;-71
2022/03/09 07:16:01;;;;;;;64.73;32.33;;;;;;;2.18;100.00;99606.69;5050081;28;20280;-72
2022/03/09 07:18:28;;;;;;;61.23;32.33;;;;;;;2.26;100.00;99610.16;5049995;28;20228;-72
2022/03/09 07:20:55;;;;;;;57.23;31.80;;;;;;;2.32;100.00;99601.66;5050248;28;20228;-72
2022/03/09 07:23:22;;;;;;;57.80;31.93;;;;;;;2.48;100.00;99606.03;5050232;28;20226;-72
2022/03/09 07:25:48;;;;;;;55.73;31.77;;;;;;;2.58;100.00;99609.50;5069853;28;20225;-72
2022/03/09 07:28:15;;;;;;;54.47;29.53;;;;;;;2.60;100.00;99602.69;5070037;28;20730;-72
2022/03/09 07:30:42;;;;;;;57.57;31.07;;;;;;;2.49;100.00;99608.56;5069745;28;20215;-72
2022/03/09 07:33:10;;;;;;;57.80;31.13;;;;;;;2.59;100.00;99612.06;5069734;28;20244;-72
2022/03/09 07:35:37;;;;;;;53.53;30.30;;;;;;;2.58;100.00;99601.81;5066932;28;20223;-72
2022/03/09 07:38:06;;;;;;;50.60;29.63;;;;;;;2.76;100.00;99617.25;5069684;28;20590;-72
2022/03/09 07:40:32;;;;;;;48.47;28.53;;;;;;;2.80;100.00;99613.84;5070350;28;20223;-72
2022/03/09 07:42:59;;;;;;;55.60;29.23;;;;;;;2.80;100.00;99607.03;5070120;28;20621;-72
2022/03/09 07:45:26;;;;;;;56.43;32.53;;;;;;;2.93;100.00;99610.50;5070428;28;20203;-72
2022/03/09 07:47:53;;;;;;;56.33;30.77;;;;;;;3.01;100.00;99611.38;5070147;28;20205;-72
2022/03/09 07:50:21;;;;;;;51.20;29.83;;;;;;;3.05;100.00;99609.69;5070067;28;20202;-71
2022/03/09 07:52:48;;;;;;;48.97;28.50;;;;;;;3.11;100.00;99610.53;5070093;28;20198;-74
2022/03/09 07:55:15;;;;;;;50.00;28.40;;;;;;;3.29;100.00;99617.41;5070023;28;20199;-73
2022/03/09 07:57:42;;;;;;;58.60;30.60;;;;;;;3.32;100.00;99604.59;5070826;28;20210;-73
2022/03/09 08:00:10;;;;;;;52.60;29.87;;;;;;;3.43;100.00;99584.94;5070396;28;20198;-73
2022/03/09 08:02:37;;;;;;;48.60;28.17;;;;;;;3.47;100.00;99598.63;5070857;28;20637;-74
2022/03/09 08:05:05;;;;;;;48.83;28.50;;;;;;;3.72;100.00;99602.94;5070350;28;20606;-72
2022/03/09 08:07:33;;;;;;;47.17;26.57;;;;;;;3.75;100.00;99614.88;5069663;28;20602;-73
2022/03/09 08:10:00;;;;;;;49.83;28.17;;;;;;;3.84;100.00;99614.88;5070253;28;20590;-72
2022/03/09 08:12:27;;;;;;;48.37;27.40;;;;;;;3.64;100.00;99602.06;5069916;28;20210;-73
2022/03/09 08:14:54;;;;;;;49.30;28.80;;;;;;;3.88;100.00;99621.75;5069913;28;20184;-73
2022/03/09 08:17:21;;;;;;;46.67;27.40;;;;;;;4.07;100.00;99615.72;5069099;28;20204;-73
2022/03/09 08:19:48;;;;;;;50.33;29.73;;;;;;;4.23;100.00;99614.00;5068469;28;20241;-73
2022/03/09 08:22:15;;;;;;;44.00;27.07;;;;;;;4.41;100.00;99608.81;5061977;28;20224;-73
2022/03/09 08:24:43;;;;;;;48.77;28.27;;;;;;;4.52;100.00;99603.66;5071787;28;20222;-73
2022/03/09 08:27:10;;;;;;;47.83;27.23;;;;;;;4.70;100.00;99613.88;5069482;28;20226;-72
2022/03/09 08:29:37;;;;;;;47.87;28.77;;;;;;;4.89;100.00;99615.50;5071969;28;20224;-73
2022/03/09 08:32:05;;;;;;;49.53;27.90;;;;;;;5.20;100.00;99612.78;5072068;28;20314;-74
2022/03/09 08:34:32;;;;;;;49.07;28.43;;;;;;;5.14;100.00;99603.38;5071666;28;20207;-73
2022/03/09 08:36:58;;;;;;;51.93;27.90;;;;;;;5.45;100.00;99612.63;5072440;28;20234;-73
2022/03/09 08:39:26;;;;;;;45.77;28.47;;;;;;;5.73;100.00;99610.72;5072557;28;20726;-73
2022/03/09 08:41:54;;;;;;;50.03;30.30;;;;;;;5.78;100.00;99616.69;5072079;28;20314;-73
2022/03/09 08:44:21;;;;;;;47.20;29.07;;;;;;;5.73;100.00;99573.81;5069152;28;20604;-73
2022/03/09 08:46:48;;;;;;;43.53;27.97;;;;;;;6.09;100.00;99603.59;5071647;28;20234;-73
2022/03/09 08:49:15;;;;;;;42.20;26.90;;;;;;;6.21;100.00;99618.06;5071697;28;20250;-73
2022/03/09 08:51:42;;;;;;;47.03;28.63;;;;;;;6.31;100.00;99612.81;5071314;28;20273;-72
2022/03/09 08:54:09;;;;;;;46.97;27.77;;;;;;;6.52;100.00;99607.44;5071335;28;20216;-72
2022/03/09 08:56:36;;;;;;;48.10;28.03;;;;;;;6.56;100.00;99606.50;5071687;28;20216;-72
2022/03/09 08:59:04;;;;;;;45.60;27.93;;;;;;;6.81;100.00;99608.81;5073319;28;20230;-72
2022/03/09 09:01:31;;;;;;;42.07;26.73;;;;;;;6.66;100.00;99607.25;5072413;28;20259;-72
2022/03/09 09:03:58;;;;;;;42.00;26.73;;;;;;;6.75;100.00;99602.00;5072743;28;20242;-73
2022/03/09 09:06:25;;;;;;;43.73;27.70;;;;;;;6.75;100.00;99593.41;5071718;28;20216;-72
2022/03/09 09:08:52;;;;;;;43.43;27.40;;;;;;;6.83;100.00;99614.81;5072168;28;20754;-72
2022/03/09 09:11:19;;;;;;;40.43;26.67;;;;;;;6.59;100.00;99589.28;5071901;28;20231;-73
2022/03/09 09:13:45;;;;;;;39.73;25.47;;;;;;;6.56;100.00;99609.09;5071979;28;20700;-85
2022/03/09 09:16:14;;;;;;;43.93;26.20;;;;;;;6.64;100.00;99603.88;5071746;28;20215;-83
2022/03/09 09:18:43;;;;;;;38.70;26.07;;;;;;;6.38;100.00;99590.41;5071659;28;20631;-83
2022/03/09 09:21:10;;;;;;;39.80;25.93;;;;;;;6.61;100.00;99603.03;5071016;28;20698;-82
2022/03/09 09:23:38;;;;;;;42.27;25.70;;;;;;;6.45;100.00;99603.19;5071661;28;20222;-84
2022/03/09 09:26:05;;;;;;;40.90;26.53;;;;;;;6.37;100.00;99594.69;5071735;28;20226;-82
2022/03/09 09:28:32;;;;;;;36.57;24.93;;;;;;;6.19;100.00;99592.31;5072032;28;20222;-83
2022/03/09 09:30:59;;;;;;;38.13;25.00;;;;;;;6.32;100.00;99596.44;5071119;28;20222;-82
2022/03/09 09:33:27;;;;;;;41.67;25.60;;;;;;;6.43;100.00;99599.78;5072789;28;20223;-84
2022/03/09 09:35:54;;;;;;;37.63;24.50;;;;;;;6.42;100.00;99603.25;5070599;28;20222;-83
2022/03/09 09:38:21;;;;;;;37.03;24.17;;;;;;;6.31;100.00;99605.09;5072257;28;20234;-83
2022/03/09 09:40:51;;;;;;;33.03;22.77;;;;;;;5.96;100.00;99605.41;5072138;28;20231;-81
2022/03/09 09:43:18;;;;;;;38.03;24.60;;;;;;;5.93;100.00;99607.16;5072713;28;20696;-83
2022/03/09 09:45:45;;;;;;;46.30;28.63;;;;;;;5.79;100.00;99604.66;5073243;28;20315;-84
2022/03/09 09:48:12;;;;;;;40.70;26.73;;;;;;;5.87;100.00;99599.47;5072789;28;20227;-83
2022/03/09 09:50:43;;;;;;;40.37;25.37;;;;;;;5.80;100.00;99594.34;5072869;28;20619;-83
2022/03/09 09:53:12;;;;;;;42.47;27.27;;;;;;;6.02;100.00;99574.44;5073001;28;20219;-82
2022/03/09 09:55:40;;;;;;;40.33;25.53;;;;;;;6.25;100.00;99576.78;5072804;28;20219;-83
2022/03/09 09:58:08;;;;;;;36.67;24.63;;;;;;;6.33;100.00;99593.00;5073204;28;20224;-83
2022/03/09 10:00:35;;;;;;;39.90;26.27;;;;;;;6.00;100.00;99583.03;5073421;28;20955;-83
2022/03/09 10:03:02;;;;;;;39.07;25.70;;;;;;;5.91;100.00;99589.13;5072681;28;20220;-84
2022/03/09 10:05:29;;;;;;;40.90;26.20;;;;;;;5.73;100.00;99581.53;5070797;28;20226;-83
2022/03/09 10:08:13;;;;;;;36.40;24.13;;;;;;;5.46;100.00;99574.88;5071082;28;20251;-82
2022/03/09 10:10:42;;;;;;;38.47;24.63;;;;;;;5.52;100.00;99576.56;5068945;28;20281;-82
2022/03/09 10:13:13;;;;;;;34.97;22.87;;;;;;;5.33;100.00;99560.38;5071396;28;20222;-82
2022/03/09 10:15:41;;;;;;;37.60;23.90;;;;;;;5.38;100.00;99572.38;5071610;28;20216;-83
2022/03/09 10:18:15;;;;;;;37.57;24.13;;;;;;;5.41;100.00;99540.59;5071292;28;20222;-83
2022/03/09 10:20:42;;;;;;;39.10;24.50;;;;;;;5.53;100.00;99557.69;5069878;28;20761;-83
2022/03/09 10:23:11;;;;;;;34.70;23.47;;;;;;;5.79;100.00;99564.31;5070537;28;20620;-82
2022/03/09 10:25:40;;;;;;;38.90;24.00;;;;;;;6.00;100.00;99563.28;5071176;28;20223;-82
2022/03/09 10:28:09;;;;;;;30.43;21.60;;;;;;;6.06;100.00;99559.81;5068664;28;20680;-82
2022/03/09 10:30:39;;;;;;;31.80;21.73;;;;;;;6.23;100.00;99563.03;5070700;28;20199;-73
2022/03/09 10:33:08;;;;;;;32.53;22.97;;;;;;;6.11;100.00;99561.44;5069596;28;20245;-71
2022/03/09 10:35:44;;;;;;;36.40;23.10;;;;;;;6.12;100.00;99558.00;5070030;28;20192;-72
2022/03/09 10:38:25;;;;;;;33.63;22.00;;;;;;;6.31;100.00;99548.38;5067513;28;20203;-72
2022/03/09 10:40:56;;;;;;;35.23;23.13;;;;;;;6.47;100.00;99549.88;5067409;28;20202;-72
2022/03/09 10:43:25;;;;;;;38.83;24.80;;;;;;;6.48;100.00;99549.03;5069386;28;20204;-72
2022/03/09 10:46:11;;;;;;;33.93;22.33;;;;;;;6.51;99.29;99550.72;5069586;28;20203;-73
2022/03/09 10:48:53;;;;;;;33.83;22.20;;;;;;;6.57;100.00;99515.38;5050317;28;20211;-73
2022/03/09 10:51:34;;;;;;;30.33;20.87;;;;;;;6.74;99.51;99509.16;5049922;28;20196;-72
2022/03/09 10:54:04;;;;;;;40.23;20.87;;;;;;;7.09;96.85;99540.50;5050574;28;20219;-73
2022/03/09 10:56:33;;;;;;;32.27;21.33;;;;;;;7.32;97.10;99547.03;5050195;28;20562;-73
2022/03/09 10:59:13;;;;;;;29.67;21.13;;;;;;;7.26;96.88;99543.66;5050286;28;20204;-73
2022/03/09 11:01:40;;;;;;;31.93;22.10;;;;;;;6.87;99.97;99492.66;5049962;28;20275;-73
2022/03/09 11:04:12;;;;;;;34.07;21.23;;;;;;;7.04;100.00;99520.78;5049530;28;20676;-73
2022/03/09 11:06:42;;;;;;;29.20;21.07;;;;;;;6.99;99.58;99528.59;5049568;28;20251;-72
2022/03/09 11:09:12;;;;;;;30.83;21.67;;;;;;;7.17;98.10;99530.06;5049655;28;20207;-72
2022/03/09 11:11:40;;;;;;;32.67;22.67;;;;;;;7.08;98.72;99536.22;5050278;28;20197;-73
2022/03/09 11:14:08;;;;;;;29.73;20.60;;;;;;;7.09;97.81;99531.91;5050326;28;20584;-72
2022/03/09 11:16:35;;;;;;;28.60;20.23;;;;;;;6.86;96.05;99525.34;5050550;28;20579;-71
2022/03/09 11:19:03;;;;;;;27.67;20.10;;;;;;;6.65;96.87;99511.88;5050198;28;20208;-73
2022/03/09 11:21:30;;;;;;;28.80;20.67;;;;;;;6.88;97.34;99515.00;5050357;28;20616;-73